Edinburg, New York
Current Conditions -  °F | °C
As of 7:10 PM on Monday 24 Nov 2014 (Local Time) from KNY0 Reporting Station
Clear Clear  
Wind Chill: 62°   Ceiling: Unl
Heat Index: 62°   Visibility: 10mi
Dew Point: 48°   Wind: 15mph
Humidity: 61%   Direction: 210°SSW
Pressure: 29.51"   Gusts: 24mph
Location:  43.2819°N, 74.3419°W
Report Text: KNY0 250010Z AUTO 21013G21KT 10SM CLR 16/09 A2951 RMK AO2 T01640088
Loading
Personal Weather Stations






























Interactive Weather Map New forecast layout! Learn more

10-Day Weather Forecast

Advertisements
Track Severe Weather on mobile